createdAt,value
2018-04-28T00:00:48.106Z,55.01
2018-04-28T00:01:48.096Z,55.40
2018-04-28T00:02:48.092Z,54.82
2018-04-28T00:04:09.081Z,54.91
2018-04-28T00:04:48.068Z,54.99
2018-04-28T00:05:48.062Z,54.89
2018-04-28T00:06:48.051Z,55.46
2018-04-28T00:07:48.039Z,54.89
2018-04-28T00:08:48.032Z,55.55
2018-04-28T00:10:09.033Z,55.46
2018-04-28T00:10:48.024Z,55.27
2018-04-28T00:11:48.004Z,55.94
2018-04-28T00:12:47.992Z,56.60
2018-04-28T00:13:47.981Z,56.41
2018-04-28T00:14:47.971Z,55.84
2018-04-28T00:16:08.984Z,56.51
2018-04-28T00:16:47.946Z,56.13
2018-04-28T00:17:47.942Z,56.13
2018-04-28T00:18:47.930Z,56.60
2018-04-28T00:19:47.923Z,56.60
2018-04-28T00:20:47.939Z,56.32
2018-04-28T00:22:08.897Z,56.51
2018-04-28T00:22:47.886Z,56.41
2018-04-28T00:23:47.883Z,55.65
2018-04-28T00:24:47.867Z,55.94
2018-04-28T00:25:47.891Z,55.27
2018-04-28T00:26:47.837Z,55.36
2018-04-28T00:28:08.837Z,55.36
2018-04-28T00:28:47.818Z,55.36
2018-04-28T00:29:47.804Z,55.36
2018-04-28T00:30:47.804Z,55.55
2018-04-28T00:31:47.796Z,55.36
2018-04-28T00:32:47.787Z,54.79
2018-04-28T00:34:08.775Z,54.41
2018-04-28T00:34:47.759Z,54.32
2018-04-28T00:35:47.749Z,54.41
2018-04-28T00:36:47.738Z,54.89
2018-04-28T00:37:47.725Z,54.79
2018-04-28T00:38:47.720Z,54.32
2018-04-28T00:40:08.714Z,54.13
2018-04-28T00:40:47.696Z,54.60
2018-04-28T00:41:47.686Z,55.27
2018-04-28T00:42:47.668Z,55.27
2018-04-28T00:43:47.664Z,54.89
2018-04-28T00:44:47.654Z,55.08
2018-04-28T00:46:08.649Z,54.32
2018-04-28T00:46:47.638Z,54.70
2018-04-28T00:47:47.647Z,54.50
2018-04-28T00:48:47.639Z,54.41
2018-04-28T00:49:47.599Z,54.32
2018-04-28T00:50:47.597Z,54.70
2018-04-28T00:52:08.588Z,54.50
2018-04-28T00:52:47.575Z,54.50
2018-04-28T00:53:47.570Z,54.50
2018-04-28T00:54:47.540Z,54.60
2018-04-28T00:55:47.535Z,55.08
2018-04-28T00:56:47.522Z,54.41
2018-04-28T00:58:08.532Z,53.74
2018-04-28T00:58:47.506Z,54.22
2018-04-28T00:59:47.491Z,54.41
2018-04-28T01:00:47.482Z,54.89
2018-04-28T01:01:47.466Z,55.46
2018-04-28T01:02:47.471Z,54.99
2018-04-28T01:04:08.455Z,55.46
2018-04-28T01:04:47.447Z,54.50
2018-04-28T01:05:47.437Z,54.60
2018-04-28T01:06:47.421Z,55.94
2018-04-28T01:07:47.417Z,55.84
2018-04-28T01:08:47.425Z,55.46
2018-04-28T01:10:08.397Z,55.55
2018-04-28T01:10:47.380Z,55.55
2018-04-28T01:11:47.366Z,55.65
2018-04-28T01:12:47.359Z,55.27
2018-04-28T01:13:47.350Z,55.36
2018-04-28T01:14:47.338Z,54.60
2018-04-28T01:16:08.324Z,55.18
2018-04-28T01:16:47.314Z,55.94
2018-04-28T01:17:47.309Z,55.36
2018-04-28T01:18:47.294Z,55.36
2018-04-28T01:19:47.285Z,55.36
2018-04-28T01:20:47.275Z,55.75
2018-04-28T01:22:08.278Z,55.46
2018-04-28T01:22:47.251Z,55.46
2018-04-28T01:23:47.237Z,55.75
2018-04-28T01:24:47.231Z,56.04
2018-04-28T01:25:47.218Z,55.84
2018-04-28T01:26:47.206Z,55.55
2018-04-28T01:28:08.203Z,55.36
2018-04-28T01:28:47.185Z,55.46
2018-04-28T01:29:47.174Z,55.18
2018-04-28T01:30:47.175Z,55.18
2018-04-28T01:31:47.159Z,55.55
2018-04-28T01:32:47.145Z,55.46
2018-04-28T01:34:08.151Z,55.55
2018-04-28T01:34:47.130Z,55.36
2018-04-28T01:35:47.107Z,55.75
2018-04-28T01:36:47.102Z,55.75
2018-04-28T01:37:47.106Z,54.29
2018-04-28T01:38:47.085Z,55.84
2018-04-28T01:40:08.080Z,55.27
2018-04-28T01:40:47.054Z,55.53
2018-04-28T01:41:47.049Z,55.91
2018-04-28T01:42:47.048Z,55.84
2018-04-28T01:43:47.027Z,55.53
2018-04-28T01:44:47.016Z,55.24
2018-04-28T01:46:08.018Z,55.43
2018-04-28T01:46:46.999Z,55.15
2018-04-28T01:47:46.979Z,55.62
2018-04-28T01:48:46.991Z,55.72
2018-04-28T01:49:46.959Z,55.72
2018-04-28T01:50:46.954Z,55.82
2018-04-28T01:52:07.947Z,55.91
2018-04-28T01:52:46.928Z,55.53
2018-04-28T01:53:46.918Z,55.91
2018-04-28T01:54:46.909Z,55.34
2018-04-28T01:55:46.903Z,55.34
2018-04-28T01:56:46.888Z,55.34
2018-04-28T01:58:07.882Z,55.62
2018-04-28T01:58:46.863Z,55.62
2018-04-28T01:59:46.845Z,55.91
2018-04-28T02:00:46.848Z,55.43
2018-04-28T02:01:46.841Z,55.91
2018-04-28T02:02:46.826Z,55.62
2018-04-28T02:04:07.841Z,55.53
2018-04-28T02:04:46.800Z,54.29
2018-04-28T02:05:46.792Z,54.77
2018-04-28T02:06:46.776Z,55.05
2018-04-28T02:07:46.763Z,54.38
2018-04-28T02:08:46.755Z,55.91
2018-04-28T02:10:07.755Z,54.67
2018-04-28T02:10:46.741Z,54.86
2018-04-28T02:11:46.727Z,54.29
2018-04-28T02:12:46.711Z,55.34
2018-04-28T02:13:46.699Z,54.86
2018-04-28T02:14:46.724Z,54.41
2018-04-28T02:16:07.688Z,54.41
2018-04-28T02:16:46.673Z,54.41
2018-04-28T02:17:46.657Z,54.38
2018-04-28T02:18:46.652Z,54.00
2018-04-28T02:19:46.636Z,54.38
2018-04-28T02:20:46.633Z,54.38
2018-04-28T02:22:07.631Z,54.38
2018-04-28T02:22:46.603Z,54.41
2018-04-28T02:23:46.591Z,54.70
2018-04-28T02:24:46.583Z,54.48
2018-04-28T02:25:46.574Z,55.05
2018-04-28T02:26:46.565Z,54.19
2018-04-28T02:28:07.549Z,54.41
2018-04-28T02:28:46.544Z,54.48
2018-04-28T02:29:46.528Z,54.70
2018-04-28T02:30:46.512Z,54.19
2018-04-28T02:31:46.512Z,54.70
2018-04-28T02:32:46.506Z,54.77
2018-04-28T02:34:07.492Z,54.29
2018-04-28T02:34:46.475Z,54.10
2018-04-28T02:35:46.483Z,54.32
2018-04-28T02:36:46.457Z,53.72
2018-04-28T02:37:46.435Z,53.72
2018-04-28T02:38:46.446Z,53.93
2018-04-28T02:40:07.423Z,54.32
2018-04-28T02:40:46.416Z,54.89
2018-04-28T02:41:46.404Z,55.34
2018-04-28T02:42:46.395Z,55.91
2018-04-28T02:43:46.383Z,55.72
2018-04-28T02:44:46.364Z,55.82
2018-04-28T02:46:07.370Z,55.72
2018-04-28T02:46:46.346Z,55.91
2018-04-28T02:47:46.341Z,54.86
2018-04-28T02:48:46.323Z,55.05
2018-04-28T02:49:46.328Z,56.87
2018-04-28T02:50:46.303Z,56.20
2018-04-28T02:52:07.302Z,56.77
2018-04-28T02:52:46.303Z,56.20
2018-04-28T02:53:46.269Z,56.48
2018-04-28T02:54:46.264Z,56.20
2018-04-28T02:55:46.272Z,56.77
2018-04-28T02:56:46.244Z,56.17
2018-04-28T02:58:07.233Z,56.58
2018-04-28T02:58:46.214Z,57.03
2018-04-28T02:59:46.204Z,57.03
2018-04-28T03:00:46.203Z,56.74
2018-04-28T03:01:46.198Z,57.12
2018-04-28T03:02:46.187Z,56.55
2018-04-28T03:04:07.170Z,56.84
2018-04-28T03:04:46.145Z,56.36
2018-04-28T03:05:46.135Z,57.41
2018-04-28T03:06:46.135Z,57.70
2018-04-28T03:07:46.114Z,58.26
2018-04-28T03:08:46.110Z,58.65
2018-04-28T03:10:07.110Z,58.36
2018-04-28T03:10:46.081Z,58.36
2018-04-28T03:11:46.071Z,58.46
2018-04-28T03:12:46.115Z,58.65
2018-04-28T03:13:46.043Z,58.46
2018-04-28T03:14:46.032Z,58.46
2018-04-28T03:16:07.029Z,58.55
2018-04-28T03:16:46.019Z,58.07
2018-04-28T03:17:46.000Z,58.36
2018-04-28T03:18:46.013Z,58.36
2018-04-28T03:19:45.982Z,58.55
2018-04-28T03:20:45.985Z,58.36
2018-04-28T03:22:06.970Z,57.41
2018-04-28T03:22:45.948Z,57.89
2018-04-28T03:23:45.957Z,58.17
2018-04-28T03:24:45.945Z,58.17
2018-04-28T03:25:45.918Z,57.79
2018-04-28T03:26:45.904Z,57.50
2018-04-28T03:28:06.918Z,57.60
2018-04-28T03:28:45.887Z,57.60
2018-04-28T03:29:45.885Z,57.79
2018-04-28T03:30:45.866Z,58.17
2018-04-28T03:31:45.878Z,57.79
2018-04-28T03:32:45.844Z,57.70
2018-04-28T03:34:06.841Z,57.89
2018-04-28T03:34:45.825Z,58.07
2018-04-28T03:35:45.810Z,58.65
2018-04-28T03:36:45.800Z,58.55
2018-04-28T03:37:45.795Z,58.65
2018-04-28T03:38:45.771Z,58.43
2018-04-28T03:40:06.765Z,57.60
2018-04-28T03:40:45.753Z,57.48
2018-04-28T03:41:45.740Z,57.95
2018-04-28T03:42:45.738Z,58.81
2018-04-28T03:43:45.718Z,59.00
2018-04-28T03:44:45.716Z,59.38
2018-04-28T03:46:06.706Z,59.19
2018-04-28T03:46:45.744Z,59.09
2018-04-28T03:47:45.674Z,58.81
2018-04-28T03:48:45.663Z,58.91
2018-04-28T03:49:45.656Z,58.91
2018-04-28T03:50:45.641Z,60.05
2018-04-28T03:52:06.631Z,59.57
2018-04-28T03:52:45.615Z,59.00
2018-04-28T03:53:45.631Z,59.19
2018-04-28T03:54:45.597Z,59.86
2018-04-28T03:55:45.589Z,59.57
2018-04-28T03:56:45.569Z,59.86
2018-04-28T03:58:06.571Z,59.57
2018-04-28T03:58:45.553Z,60.24
2018-04-28T03:59:45.544Z,59.67
2018-04-28T04:00:45.540Z,59.67
2018-04-28T04:01:45.524Z,59.48
2018-04-28T04:02:45.513Z,59.95
2018-04-28T04:04:06.502Z,58.14
2018-04-28T04:04:45.481Z,58.33
2018-04-28T04:05:45.473Z,58.33
2018-04-28T04:06:45.469Z,58.81
2018-04-28T04:07:45.454Z,59.38
2018-04-28T04:08:45.439Z,59.48
2018-04-28T04:10:06.431Z,59.57
2018-04-28T04:10:45.427Z,60.14
2018-04-28T04:11:45.413Z,60.43
2018-04-28T04:12:45.405Z,59.76
2018-04-28T04:13:45.383Z,60.24
2018-04-28T04:14:45.375Z,60.24
2018-04-28T04:16:06.370Z,60.72
2018-04-28T04:16:45.347Z,61.57
2018-04-28T04:17:45.338Z,61.76
2018-04-28T04:18:45.334Z,60.91
2018-04-28T04:19:45.324Z,61.00
2018-04-28T04:20:45.304Z,60.81
2018-04-28T04:22:06.311Z,60.91
2018-04-28T04:22:45.302Z,61.00
2018-04-28T04:23:45.277Z,60.91
2018-04-28T04:24:45.258Z,60.62
2018-04-28T04:25:45.238Z,61.19
2018-04-28T04:26:45.234Z,61.19
2018-04-28T04:28:06.229Z,61.67
2018-04-28T04:28:45.238Z,60.81
2018-04-28T04:29:45.206Z,60.43
2018-04-28T04:30:45.200Z,60.62
2018-04-28T04:31:45.183Z,60.52
2018-04-28T04:32:45.171Z,60.05
2018-04-28T04:34:06.165Z,59.38
2018-04-28T04:34:45.159Z,59.74
2018-04-28T04:35:45.136Z,59.48
2018-04-28T04:36:45.130Z,59.76
2018-04-28T04:37:45.185Z,59.86
2018-04-28T04:38:45.101Z,60.33
2018-04-28T04:40:06.094Z,60.81
2018-04-28T04:40:45.075Z,60.24
2018-04-28T04:41:45.063Z,60.24
2018-04-28T04:42:45.064Z,60.05
2018-04-28T04:43:45.040Z,59.86
2018-04-28T04:44:45.033Z,60.24
2018-04-28T04:46:06.023Z,59.67
2018-04-28T04:46:45.005Z,60.24
2018-04-28T04:47:45.022Z,60.24
2018-04-28T04:48:44.984Z,60.33
2018-04-28T04:49:44.978Z,61.67
2018-04-28T04:50:44.968Z,61.86
2018-04-28T04:52:05.964Z,61.76
2018-04-28T04:52:44.944Z,60.81
2018-04-28T04:53:44.935Z,61.38
2018-04-28T04:54:44.920Z,60.91
2018-04-28T04:55:44.896Z,60.81
2018-04-28T04:56:44.894Z,60.43
2018-04-28T04:58:05.898Z,60.43
2018-04-28T04:58:44.877Z,61.00
2018-04-28T04:59:44.851Z,60.33
2018-04-28T05:00:44.853Z,60.33
2018-04-28T05:01:44.841Z,61.00
2018-04-28T05:02:44.831Z,60.14
2018-04-28T05:04:05.822Z,61.38
2018-04-28T05:04:44.812Z,62.24
2018-04-28T05:05:44.808Z,61.67
2018-04-28T05:06:44.787Z,60.62
2018-04-28T05:07:44.778Z,59.76
2018-04-28T05:08:44.757Z,59.76
2018-04-28T05:10:05.764Z,59.86
2018-04-28T05:10:44.739Z,60.91
2018-04-28T05:11:44.720Z,61.19
2018-04-28T05:12:44.718Z,61.57
2018-04-28T05:13:44.701Z,61.00
2018-04-28T05:14:44.699Z,61.57
2018-04-28T05:16:05.684Z,61.48
2018-04-28T05:16:44.671Z,62.34
2018-04-28T05:17:44.661Z,62.81
2018-04-28T05:18:44.640Z,62.05
2018-04-28T05:19:44.633Z,62.05
2018-04-28T05:20:44.631Z,62.05
2018-04-28T05:22:05.622Z,61.67
2018-04-28T05:22:44.597Z,61.10
2018-04-28T05:23:44.585Z,60.91
2018-04-28T05:24:44.594Z,60.81
2018-04-28T05:25:44.569Z,61.00
2018-04-28T05:26:44.554Z,60.81
2018-04-28T05:28:05.556Z,61.48
2018-04-28T05:28:44.532Z,62.05
2018-04-28T05:29:44.538Z,62.05
2018-04-28T05:30:44.514Z,62.24
2018-04-28T05:31:44.502Z,62.15
2018-04-28T05:32:44.486Z,61.48
2018-04-28T05:34:05.484Z,61.67
2018-04-28T05:34:44.460Z,61.76
2018-04-28T05:35:44.455Z,61.67
2018-04-28T05:36:44.443Z,61.67
2018-04-28T05:37:44.437Z,62.05
2018-04-28T05:38:44.411Z,62.05
2018-04-28T05:40:05.411Z,62.81
2018-04-28T05:40:44.404Z,62.52
2018-04-28T05:41:44.386Z,61.96
2018-04-28T05:42:44.372Z,62.15
2018-04-28T05:43:44.370Z,62.24
2018-04-28T05:44:44.356Z,62.52
2018-04-28T05:46:05.346Z,62.62
2018-04-28T05:46:44.335Z,63.39
2018-04-28T05:47:44.317Z,62.62
2018-04-28T05:48:44.309Z,63.29
2018-04-28T05:49:44.289Z,63.76
2018-04-28T05:50:44.286Z,63.29
2018-04-28T05:52:05.280Z,63.96
2018-04-28T05:52:44.264Z,64.53
2018-04-28T05:53:44.250Z,64.53
2018-04-28T05:54:44.251Z,64.15
2018-04-28T05:55:44.230Z,63.76
2018-04-28T05:56:44.213Z,63.57
2018-04-28T05:58:05.218Z,63.96
2018-04-28T05:58:44.190Z,63.20
2018-04-28T05:59:44.181Z,63.10
2018-04-28T06:00:44.165Z,62.65
2018-04-28T06:01:44.165Z,62.65
2018-04-28T06:02:44.150Z,63.51
2018-04-28T06:04:05.131Z,63.13
2018-04-28T06:04:44.124Z,63.80
2018-04-28T06:05:44.117Z,64.18
2018-04-28T06:06:44.119Z,63.99
2018-04-28T06:07:44.105Z,64.75
2018-04-28T06:08:44.089Z,64.09
2018-04-28T06:10:05.074Z,63.51
2018-04-28T06:10:44.059Z,63.89
2018-04-28T06:11:44.049Z,63.80
2018-04-28T06:12:44.032Z,63.32
2018-04-28T06:13:44.031Z,63.23
2018-04-28T06:14:44.008Z,62.84
2018-04-28T06:16:05.002Z,63.04
2018-04-28T06:16:43.990Z,62.56
2018-04-28T06:17:43.976Z,62.84
2018-04-28T06:18:43.968Z,63.23
2018-04-28T06:19:43.958Z,62.68
2018-04-28T06:20:43.947Z,62.49
2018-04-28T06:22:04.945Z,62.21
2018-04-28T06:22:43.923Z,62.11
2018-04-28T06:23:43.910Z,62.05
2018-04-28T06:24:43.897Z,62.52
2018-04-28T06:25:43.897Z,61.95
2018-04-28T06:26:43.878Z,61.86
2018-04-28T06:28:04.873Z,62.18
2018-04-28T06:28:43.855Z,61.32
2018-04-28T06:29:43.847Z,59.88
2018-04-28T06:30:43.839Z,59.41
2018-04-28T06:31:43.827Z,59.41
2018-04-28T06:32:43.814Z,59.63
2018-04-28T06:34:04.820Z,59.15
2018-04-28T06:34:43.803Z,58.86
2018-04-28T06:35:43.857Z,59.05
2018-04-28T06:36:43.793Z,58.89
2018-04-28T06:37:43.771Z,60.61
2018-04-28T06:38:43.749Z,61.38
2018-04-28T06:40:04.743Z,59.47
2018-04-28T06:40:43.727Z,58.89
2018-04-28T06:41:43.723Z,58.51
2018-04-28T06:42:43.707Z,58.41
2018-04-28T06:43:43.703Z,57.39
2018-04-28T06:44:43.712Z,57.97
2018-04-28T06:46:04.681Z,57.77
2018-04-28T06:46:43.666Z,57.48
2018-04-28T06:47:43.658Z,57.48
2018-04-28T06:48:43.647Z,57.68
2018-04-28T06:49:43.642Z,57.29
2018-04-28T06:50:43.634Z,57.87
2018-04-28T06:52:04.617Z,59.52
2018-04-28T06:52:43.608Z,59.33
2018-04-28T06:53:43.595Z,58.56
2018-04-28T06:54:43.600Z,58.18
2018-04-28T06:55:43.584Z,57.51
2018-04-28T06:56:43.572Z,56.97
2018-04-28T06:58:04.574Z,56.49
2018-04-28T06:58:43.564Z,56.87
2018-04-28T06:59:43.542Z,56.59
2018-04-28T07:00:43.538Z,56.01
2018-04-28T07:01:43.528Z,57.26
2018-04-28T07:02:43.516Z,56.77
2018-04-28T07:04:04.505Z,55.63
2018-04-28T07:04:43.486Z,56.49
2018-04-28T07:05:43.482Z,56.10
2018-04-28T07:06:43.471Z,56.61
2018-04-28T07:07:43.464Z,55.75
2018-04-28T07:08:43.452Z,55.65
2018-04-28T07:10:04.450Z,54.79
2018-04-28T07:10:43.452Z,53.36
2018-04-28T07:11:43.430Z,52.69
2018-04-28T07:12:43.418Z,52.01
2018-04-28T07:13:43.414Z,52.11
2018-04-28T07:14:43.411Z,52.97
2018-04-28T07:16:04.413Z,55.58
2018-04-28T07:16:43.392Z,54.91
2018-04-28T07:17:43.380Z,54.05
2018-04-28T07:18:43.368Z,53.77
2018-04-28T07:19:43.353Z,53.48
2018-04-28T07:20:43.356Z,51.28
2018-04-28T07:22:04.342Z,49.55
2018-04-28T07:22:43.329Z,50.89
2018-04-28T07:23:43.330Z,51.46
2018-04-28T07:24:43.318Z,51.95
2018-04-28T07:25:43.305Z,51.56
2018-04-28T07:26:43.298Z,51.85
2018-04-28T07:28:04.288Z,52.04
2018-04-28T07:28:43.286Z,51.75
2018-04-28T07:29:43.268Z,51.85
2018-04-28T07:30:43.263Z,52.91
2018-04-28T07:31:43.256Z,53.28
2018-04-28T07:32:43.242Z,53.79
2018-04-28T07:34:04.258Z,51.97
2018-04-28T07:34:43.223Z,51.30
2018-04-28T07:35:43.214Z,51.87
2018-04-28T07:36:43.213Z,51.08
2018-04-28T07:37:43.197Z,49.74
2018-04-28T07:38:43.190Z,49.74
2018-04-28T07:40:04.190Z,50.41
2018-04-28T07:40:43.176Z,50.51
2018-04-28T07:41:43.168Z,50.03
2018-04-28T07:42:43.159Z,50.32
2018-04-28T07:43:43.149Z,50.48
2018-04-28T07:44:43.148Z,49.52
2018-04-28T07:46:04.141Z,49.91
2018-04-28T07:46:43.137Z,50.58
2018-04-28T07:47:43.201Z,50.48
2018-04-28T07:48:43.111Z,50.41
2018-04-28T07:49:43.105Z,50.41
2018-04-28T07:50:43.083Z,49.93
2018-04-28T07:52:04.085Z,48.78
2018-04-28T07:52:43.075Z,47.82
2018-04-28T07:53:43.062Z,48.69
2018-04-28T07:54:43.057Z,49.74
2018-04-28T07:55:43.056Z,48.80
2018-04-28T07:56:43.037Z,48.52
2018-04-28T07:58:04.035Z,49.57
2018-04-28T07:58:43.020Z,49.48
2018-04-28T07:59:43.014Z,48.80
2018-04-28T08:00:43.006Z,48.61
2018-04-28T08:01:42.992Z,49.57
2018-04-28T08:02:42.985Z,48.80
2018-04-28T08:04:03.987Z,47.94
2018-04-28T08:04:42.968Z,49.48
2018-04-28T08:05:42.962Z,49.38
2018-04-28T08:06:42.963Z,48.33
2018-04-28T08:07:42.949Z,48.33
2018-04-28T08:08:42.939Z,47.75
2018-04-28T08:10:03.931Z,47.17
2018-04-28T08:10:42.923Z,47.27
2018-04-28T08:11:42.914Z,47.97
2018-04-28T08:12:42.907Z,47.77
2018-04-28T08:13:42.916Z,48.16
2018-04-28T08:14:42.884Z,48.44
2018-04-28T08:16:03.878Z,49.21
2018-04-28T08:16:42.868Z,49.69
2018-04-28T08:17:42.875Z,50.17
2018-04-28T08:18:42.853Z,49.50
2018-04-28T08:19:42.846Z,48.64
2018-04-28T08:20:42.890Z,47.77
2018-04-28T08:22:03.841Z,47.39
2018-04-28T08:22:42.829Z,47.97
2018-04-28T08:23:42.815Z,47.97
2018-04-28T08:24:42.809Z,48.83
2018-04-28T08:25:42.800Z,47.99
2018-04-28T08:26:42.790Z,49.91
2018-04-28T08:28:03.778Z,49.62
2018-04-28T08:28:42.768Z,49.82
2018-04-28T08:29:42.766Z,48.85
2018-04-28T08:30:42.758Z,49.52
2018-04-28T08:31:42.749Z,49.72
2018-04-28T08:32:42.752Z,48.57
2018-04-28T08:34:03.743Z,46.94
2018-04-28T08:34:42.737Z,46.65
2018-04-28T08:35:42.719Z,47.22
2018-04-28T08:36:42.706Z,48.85
2018-04-28T08:37:42.704Z,49.91
2018-04-28T08:38:42.687Z,48.97
2018-04-28T08:40:03.693Z,46.77
2018-04-28T08:40:42.672Z,45.23
2018-04-28T08:41:42.670Z,45.42
2018-04-28T08:42:42.660Z,45.81
2018-04-28T08:43:42.653Z,50.03
2018-04-28T08:44:42.650Z,47.17
2018-04-28T08:46:03.654Z,44.77
2018-04-28T08:46:42.639Z,44.68
2018-04-28T08:47:42.633Z,46.21
2018-04-28T08:48:42.619Z,46.79
2018-04-28T08:49:42.613Z,47.08
2018-04-28T08:50:42.605Z,45.92
2018-04-28T08:52:03.597Z,45.73
2018-04-28T08:52:42.587Z,46.48
2018-04-28T08:53:42.586Z,46.98
2018-04-28T08:54:42.567Z,47.27
2018-04-28T08:55:42.570Z,47.27
2018-04-28T08:56:42.578Z,45.42
2018-04-28T08:58:03.608Z,45.45
2018-04-28T08:58:42.543Z,46.19
2018-04-28T08:59:42.533Z,45.81
2018-04-28T09:00:42.527Z,46.21
2018-04-28T09:01:42.519Z,44.58
2018-04-28T09:02:42.512Z,44.56
2018-04-28T09:04:03.502Z,46.09
2018-04-28T09:04:42.500Z,46.67
2018-04-28T09:05:42.478Z,48.04
2018-04-28T09:06:42.480Z,49.48
2018-04-28T09:07:42.463Z,48.52
2018-04-28T09:08:42.466Z,46.50
2018-04-28T09:10:03.457Z,44.68
2018-04-28T09:10:42.455Z,44.87
2018-04-28T09:11:42.440Z,45.35
2018-04-28T09:12:42.439Z,43.62
2018-04-28T09:13:42.435Z,44.10
2018-04-28T09:14:42.423Z,45.73
2018-04-28T09:16:03.419Z,44.48
2018-04-28T09:16:42.409Z,47.77
2018-04-28T09:17:42.406Z,47.20
2018-04-28T09:18:42.388Z,45.47
2018-04-28T09:19:42.386Z,44.79
2018-04-28T09:20:42.385Z,46.62
2018-04-28T09:22:03.374Z,46.62
2018-04-28T09:22:42.368Z,44.89
2018-04-28T09:23:42.350Z,44.02
2018-04-28T09:24:42.346Z,43.45
2018-04-28T09:25:42.352Z,43.35
2018-04-28T09:26:42.363Z,44.02
2018-04-28T09:28:03.340Z,44.79
2018-04-28T09:28:42.321Z,44.70
2018-04-28T09:29:42.319Z,43.64
2018-04-28T09:30:42.310Z,43.64
2018-04-28T09:31:42.292Z,44.51
2018-04-28T09:32:42.296Z,43.64
2018-04-28T09:34:03.294Z,43.64
2018-04-28T09:34:42.281Z,43.18
2018-04-28T09:35:42.274Z,45.20
2018-04-28T09:36:42.282Z,43.85
2018-04-28T09:37:42.260Z,42.53
2018-04-28T09:38:42.245Z,43.40
2018-04-28T09:40:03.335Z,43.20
2018-04-28T09:40:42.240Z,44.82
2018-04-28T09:41:42.227Z,43.18
2018-04-28T09:42:42.217Z,44.72
2018-04-28T09:43:42.212Z,47.41
2018-04-28T09:44:42.205Z,44.35
2018-04-28T09:46:03.210Z,44.17
2018-04-28T09:46:42.194Z,45.42
2018-04-28T09:47:42.180Z,45.13
2018-04-28T09:48:42.186Z,44.45
2018-04-28T09:49:42.180Z,46.77
2018-04-28T09:50:42.164Z,48.03
2018-04-28T09:52:03.166Z,43.23
2018-04-28T09:52:42.154Z,42.74
2018-04-28T09:53:42.147Z,43.80
2018-04-28T09:54:42.144Z,42.65
2018-04-28T09:55:42.136Z,42.93
2018-04-28T09:56:42.130Z,41.97
2018-04-28T09:58:03.128Z,40.81
2018-04-28T09:58:42.117Z,43.41
2018-04-28T09:59:42.104Z,41.68
2018-04-28T10:00:42.105Z,41.18
2018-04-28T10:01:42.093Z,42.24
2018-04-28T10:02:42.089Z,37.22
2018-04-28T10:04:03.080Z,38.76
2018-04-28T10:04:42.072Z,41.91
2018-04-28T10:05:42.073Z,41.82
2018-04-28T10:06:42.072Z,44.34
2018-04-28T10:07:42.057Z,43.76
2018-04-28T10:08:42.053Z,42.50
2018-04-28T10:10:03.052Z,43.85
2018-04-28T10:10:42.032Z,42.20
2018-04-28T10:11:42.036Z,42.12
2018-04-28T10:12:42.094Z,42.41
2018-04-28T10:13:42.028Z,43.76
2018-04-28T10:14:42.008Z,41.45
2018-04-28T10:16:03.007Z,41.74
2018-04-28T10:16:42.000Z,43.40
2018-04-28T10:17:41.992Z,43.59
2018-04-28T10:18:41.991Z,41.76
2018-04-28T10:19:41.976Z,40.41
2018-04-28T10:20:41.972Z,41.86
2018-04-28T10:22:02.965Z,42.63
2018-04-28T10:22:41.961Z,42.53
2018-04-28T10:23:41.950Z,40.99
2018-04-28T10:24:41.946Z,41.56
2018-04-28T10:25:41.945Z,41.95
2018-04-28T10:26:41.929Z,39.83
2018-04-28T10:28:02.933Z,41.95
2018-04-28T10:28:41.917Z,41.86
2018-04-28T10:29:41.912Z,41.78
2018-04-28T10:30:41.904Z,42.07
2018-04-28T10:31:41.892Z,40.63
2018-04-28T10:32:41.898Z,40.91
2018-04-28T10:34:02.890Z,39.18
2018-04-28T10:34:41.883Z,39.66
2018-04-28T10:35:41.866Z,40.14
2018-04-28T10:36:41.862Z,38.41
2018-04-28T10:37:41.859Z,36.87
2018-04-28T10:38:41.861Z,38.02
2018-04-28T10:40:02.859Z,38.22
2018-04-28T10:40:41.837Z,37.06
2018-04-28T10:41:41.833Z,35.71
2018-04-28T10:42:41.825Z,31.37
2018-04-28T10:43:41.821Z,31.87
2018-04-28T10:44:41.819Z,31.27
2018-04-28T10:46:02.817Z,31.37
2018-04-28T10:46:41.809Z,29.93
2018-04-28T10:47:41.804Z,29.54
2018-04-28T10:48:41.782Z,29.54
2018-04-28T10:49:41.778Z,31.65
2018-04-28T10:50:41.773Z,32.90
2018-04-28T10:52:02.773Z,33.00
2018-04-28T10:52:41.767Z,32.23
2018-04-28T10:53:41.845Z,31.37
2018-04-28T10:54:41.751Z,29.83
2018-04-28T10:55:41.741Z,30.80
2018-04-28T10:56:41.741Z,28.77
2018-04-28T10:58:02.753Z,29.27
2018-04-28T10:58:41.729Z,30.61
2018-04-28T10:59:41.725Z,30.32
2018-04-28T11:00:41.720Z,31.48
2018-04-28T11:01:41.704Z,31.48
2018-04-28T11:02:41.699Z,31.49
2018-04-28T11:04:02.700Z,33.81
2018-04-28T11:04:41.685Z,36.02
2018-04-28T11:05:41.685Z,31.11
2018-04-28T11:06:41.690Z,29.38
2018-04-28T11:07:41.715Z,31.30
2018-04-28T11:08:41.666Z,32.76
2018-04-28T11:10:02.663Z,33.61
2018-04-28T11:10:41.643Z,32.67
2018-04-28T11:11:41.632Z,31.41
2018-04-28T11:12:41.641Z,32.67
2018-04-28T11:13:41.629Z,34.59
2018-04-28T11:14:41.630Z,32.01
2018-04-28T11:16:02.624Z,32.87
2018-04-28T11:16:41.616Z,33.36
2018-04-28T11:17:41.610Z,30.66
2018-04-28T11:18:41.602Z,29.22
2018-04-28T11:19:41.660Z,29.50
2018-04-28T11:20:41.592Z,29.71
2018-04-28T11:22:02.620Z,31.73
2018-04-28T11:22:41.601Z,32.21
2018-04-28T11:23:41.567Z,31.54
2018-04-28T11:24:41.577Z,31.46
2018-04-28T11:25:41.607Z,30.79
2018-04-28T11:26:41.564Z,30.21
2018-04-28T11:28:02.554Z,26.33
2018-04-28T11:28:41.540Z,26.73
2018-04-28T11:29:41.541Z,28.56
2018-04-28T11:30:41.536Z,30.79
2018-04-28T11:31:41.528Z,29.82
2018-04-28T11:32:41.517Z,30.30
2018-04-28T11:34:02.545Z,30.40
2018-04-28T11:34:41.507Z,29.53
2018-04-28T11:35:41.499Z,27.89
2018-04-28T11:36:41.495Z,25.67
2018-04-28T11:37:41.494Z,25.96
2018-04-28T11:38:41.496Z,26.44
2018-04-28T11:40:02.492Z,28.47
2018-04-28T11:40:41.485Z,27.02
2018-04-28T11:41:41.476Z,27.70
2018-04-28T11:42:41.474Z,27.29
2018-04-28T11:43:41.548Z,27.39
2018-04-28T11:44:41.456Z,27.59
2018-04-28T11:46:02.458Z,30.96
2018-04-28T11:46:41.460Z,31.35
2018-04-28T11:47:41.435Z,32.91
2018-04-28T11:48:41.457Z,30.49
2018-04-28T11:49:41.445Z,29.63
2018-04-28T11:50:41.423Z,27.70
2018-04-28T11:52:02.421Z,27.13
2018-04-28T11:52:41.409Z,29.64
2018-04-28T11:53:41.423Z,28.87
2018-04-28T11:54:41.404Z,25.97
2018-04-28T11:55:41.400Z,26.75
2018-04-28T11:56:41.394Z,26.35
2018-04-28T11:58:02.398Z,25.78
2018-04-28T11:58:41.392Z,27.13
2018-04-28T11:59:41.382Z,28.77
2018-04-28T12:00:41.380Z,28.19
2018-04-28T12:01:41.382Z,25.97
2018-04-28T12:02:41.402Z,28.48
2018-04-28T12:04:02.363Z,28.67
2018-04-28T12:04:41.360Z,27.13
2018-04-28T12:05:41.420Z,25.97
2018-04-28T12:06:41.352Z,26.84
2018-04-28T12:07:41.346Z,25.68
2018-04-28T12:08:41.336Z,25.67
2018-04-28T12:10:02.364Z,28.08
2018-04-28T12:10:41.330Z,27.31
2018-04-28T12:11:41.320Z,27.60
2018-04-28T12:12:41.402Z,26.73
2018-04-28T12:13:41.312Z,26.25
2018-04-28T12:14:41.311Z,28.37
2018-04-28T12:16:02.305Z,29.43
2018-04-28T12:16:41.298Z,28.66
2018-04-28T12:17:41.295Z,27.70
2018-04-28T12:18:41.284Z,28.47
2018-04-28T12:19:41.284Z,27.40
2018-04-28T12:20:41.275Z,26.92
2018-04-28T12:22:02.279Z,28.67
2018-04-28T12:22:41.271Z,30.32
2018-04-28T12:23:41.269Z,27.51
2018-04-28T12:24:41.255Z,25.97
2018-04-28T12:25:41.257Z,25.57
2018-04-28T12:26:41.241Z,27.22
2018-04-28T12:28:02.251Z,26.04
2018-04-28T12:28:41.233Z,27.09
2018-04-28T12:29:41.245Z,27.48
2018-04-28T12:30:41.227Z,27.38
2018-04-28T12:31:41.221Z,27.09
2018-04-28T12:32:41.214Z,26.31
2018-04-28T12:34:02.222Z,27.46
2018-04-28T12:34:41.213Z,27.17
2018-04-28T12:35:41.206Z,26.31
2018-04-28T12:36:41.206Z,27.56
2018-04-28T12:37:41.195Z,27.46
2018-04-28T12:38:41.193Z,28.91
2018-04-28T12:40:02.188Z,29.58
2018-04-28T12:40:41.188Z,30.64
2018-04-28T12:41:41.175Z,31.72
2018-04-28T12:42:41.165Z,32.03
2018-04-28T12:43:41.170Z,30.77
2018-04-28T12:44:41.149Z,30.00
2018-04-28T12:46:02.160Z,30.10
2018-04-28T12:46:41.140Z,28.74
2018-04-28T12:47:41.132Z,30.19
2018-04-28T12:48:41.132Z,30.11
2018-04-28T12:49:41.133Z,28.56
2018-04-28T12:50:41.155Z,27.50
2018-04-28T12:52:02.131Z,28.48
2018-04-28T12:52:41.119Z,30.90